Beauregard Regional Airport De Ridder US
ICAO: KDRI
IATA: DRI
Category: Medium
Scheduled Services: No

Elevation: 202 ft
TransAlt. 18000 ft.

Airport Communications:
POLK APP/DEP:123.7
AWOS 3:118.225
DE RIDDER RDO:122.2
CTAF/UNICOM:122.8

KDRI Zoom In..

Runways:

(A) RW 14 length 4220 ft width 60 ft
LOC 111.10 / hdg 130

(B) RW 18 length 5495 ft width 100 ft
LOC 111.10 / hdg 175

(C) RW 32 length 4220 ft width 60 ft
LOC 111.10 / hdg 310

(D) RW 36 length 5495 ft width 100 ft
LOC 111.10 / hdg 355

Location; KDRI
Day. 23 / Time. 03.15 Zulu
* Altimeter: 29.88
* Temperature: 30° c. 86°f.
* Wind from: 220° Speed 05 kn.
Dewpoint: 25° c.
Visibility: 7 Statute Miles.
Clouds: Clear (automated report).

KDRI 230315Z AUTO 22005KT 7SM CLR 30/25 A2988 RMK AO2 T02950246


Wind From 220°
Speed 05 kn.

 
 
jpsmedia.com for Web Design worldairports.se 2018   terms of use